• Join FlightAware (Why Join?)
  • Login
  • US Flag 
11:48AM EST


 

Airport Tracker/Info


-or-


 

Live Flight TrackerFlight Track Log ✈ EGF3046 ✈ 17-Jun-2013 ✈ KSYR - KORD

Flight Track Log - Related Links

Times and Time Zones

All times are in EDT time to prevent confusion due to time zone crossing. See the EGF3046 flight status page for this flight to view local times or setup timezone preferences in your user account.

Time Position Orientation Groundspeed Altitude Reporting Facility
EDT Latitude Longitude Course Direction KTS MPH feet Rate Location/Type
05:34PM 43.1064 -76.1658 259° West 174 200 1,800  Level Boston Center
05:36PM 43.1564 -76.3053 296° West 211 243 6,100 2,160 Climbing Cleveland Center
05:37PM 43.1864 -76.3800 299° West 222 255 8,300 2,040 Climbing Cleveland Center
05:38PM 43.2000 -76.4703 282° West 229 264 10,200 1,500 Climbing Cleveland Center
05:39PM 43.1994 -76.5758 270° West 250 288 11,300 1,020 Climbing Cleveland Center
05:40PM 43.1972 -76.6928 269° West 286 329 12,300 1,200 Climbing Cleveland Center
05:41PM 43.1925 -76.8042 267° West 317 365 13,800 1,500 Climbing Cleveland Center
05:42PM 43.1903 -76.9267 269° West 322 371 15,300 1,380 Climbing Cleveland Center
05:43PM 43.1878 -77.0467 268° West 327 376 16,600 1,200 Climbing Cleveland Center
05:44PM 43.1872 -77.1719 270° West 327 376 17,700 960 Climbing Cleveland Center
05:45PM 43.1828 -77.3031 267° West 332 382 18,600 900 Climbing Cleveland Center
05:46PM 43.1803 -77.4342 269° West 337 388 19,600 960 Climbing Cleveland Center
05:47PM 43.1778 -77.5739 269° West 360 414 20,600 960 Climbing Cleveland Center
05:48PM 43.1750 -77.7108 268° West 365 420 21,600 960 Climbing Cleveland Center
05:49PM 43.1719 -77.8533 268° West 365 420 22,600 960 Climbing Cleveland Center
05:50PM 43.1689 -77.9928 268° West 365 420 23,600 960 Climbing Cleveland Center
05:51PM 43.1636 -78.1297 267° West 365 420 24,600 1,020 Climbing Cleveland Center
05:52PM 43.1603 -78.2636 268° West 365 420 25,700 1,140 Climbing Cleveland Center
05:53PM 43.1564 -78.3975 268° West 365 420 26,900 1,200 Climbing Cleveland Center
05:54PM 43.1525 -78.5231 268° West 359 413 28,100 1,140 Climbing Cleveland Center
05:55PM 43.1483 -78.6425 267° West 338 389 29,200 1,140 Climbing Cleveland Center
05:56PM 43.1461 -78.7592 269° West 326 375 30,400 1,200 Climbing Cleveland Center
05:57PM 43.1417 -78.8761 267° West 321 369 31,600 1,260 Climbing Cleveland Center
05:57PM 43.1333 -78.9000 244° Southwest 310 357 32,000 300 Climbing Toronto Center
05:58PM 43.1333 -79.0167 270° West 320 368 32,000 300 Level Toronto Center
05:59PM 43.1167 -79.1500 260° West 350 403 32,600 720 Climbing Toronto Center
06:00PM 43.1167 -79.2833 270° West 350 403 33,500 900 Climbing Toronto Center
06:01PM 43.1167 -79.4333 270° West 340 391 34,500 900 Climbing Toronto Center
06:02PM 43.1000 -79.5500 259° West 340 391 35,400 720 Climbing Toronto Center
06:03PM 43.1000 -79.6500 270° West 330 380 36,000 300 Climbing Toronto Center
06:04PM 43.1000 -79.8000 270° West 330 380 36,000  Level Toronto Center
06:05PM 43.0833 -79.9333 260° West 330 380 36,000  Level Toronto Center
06:06PM 43.0833 -80.0500 270° West 330 380 36,000  Level Toronto Center
06:07PM 43.0833 -80.1833 270° West 330 380 36,000  Level Toronto Center
06:08PM 43.0667 -80.3000 259° West 330 380 36,000  Level Toronto Center
06:09PM 43.0667 -80.4333 270° West 330 380 36,000  Level Toronto Center
06:10PM 43.0667 -80.5500 270° West 330 380 36,000  Level Toronto Center
06:11PM 43.0500 -80.6667 259° West 330 380 36,000  Level Toronto Center
06:12PM 43.0500 -80.8000 270° West 330 380 36,000  Level Toronto Center
06:13PM 43.0333 -80.9167 259° West 330 380 36,000  Level Toronto Center
06:14PM 43.0167 -81.0500 260° West 320 368 36,000  Level Toronto Center
06:15PM 43.0167 -81.1667 270° West 320 368 36,000  Level Toronto Center
06:16PM 43.0167 -81.3000 270° West 320 368 36,000  Level Toronto Center
06:17PM 43.0167 -81.4167 270° West 320 368 36,000  Level Toronto Center
06:18PM 43.0167 -81.5333 270° West 320 368 36,000  Level Toronto Center
06:19PM 43.0167 -81.6333 270° West 310 357 36,000  Level Toronto Center
06:20PM 43.0167 -81.7500 270° West 310 357 36,000  Level Toronto Center
06:21PM 43.0167 -81.8833 270° West 320 368 36,000  Level Toronto Center
06:22PM 43.0000 -82.0000 259° West 330 380 36,000  Level Toronto Center
06:23PM 43.0000 -82.1333 270° West 320 368 36,000  Level Toronto Center
06:24PM 43.0000 -82.2500 270° West 320 368 36,000  Level Toronto Center
06:25PM 43.0000 -82.3667 270° West 320 368 36,000  Level Toronto Center
06:26PM 43.0000 -82.5000 270° West 330 380 36,000 -180 Level Toronto Center
06:27PM 43.0000 -82.6167 270° West 330 380 35,700 -480 Descending Toronto Center
06:27PM 43.0022 -82.6611 274° West 325 374 35,400 -1,020 Descending Cleveland Center
06:28PM 42.9997 -82.7861 268° West 325 374 34,400 -1,020 Descending Cleveland Center
06:29PM 42.9953 -82.9081 267° West 325 374 33,400 -1,020 Descending Cleveland Center
06:30PM 42.9906 -83.0356 267° West 330 380 32,400 -720 Descending Cleveland Center
06:31PM 42.9878 -83.1689 268° West 341 392 32,000 -240 Descending Cleveland Center
06:32PM 42.9825 -83.3050 267° West 355 409 32,000  Level Cleveland Center
06:33PM 42.9750 -83.4436 266° West 362 417 32,000  Level Cleveland Center
06:34PM 42.9717 -83.5769 268° West 362 417 32,000  Level Cleveland Center
06:35PM 42.9678 -83.7158 268° West 362 417 32,000  Level Cleveland Center
06:36PM 42.9556 -83.8542 263° West 362 417 32,000  Level Cleveland Center
06:37PM 42.9414 -83.9925 262° West 367 422 32,000  Level Cleveland Center
06:38PM 42.9289 -84.1278 263° West 367 422 32,000  Level Cleveland Center
06:39PM 42.9233 -84.1878 263° West 369 425 32,000  Level Chicago Center
06:40PM 42.9097 -84.3264 262° West 369 425 32,000  Level Chicago Center
06:41PM 42.8961 -84.4656 262° West 370 426 32,000  Level Chicago Center
06:42PM 42.8800 -84.6256 262° West 359 413 32,000  Level Chicago Center
06:43PM 42.8667 -84.7606 262° West 358 412 32,000  Level Chicago Center
06:44PM 42.8519 -84.8975 262° West 365 420 32,000  Level Chicago Center
06:45PM 42.8369 -85.0331 261° West 364 419 32,000 -120 Level Chicago Center
06:46PM 42.8225 -85.1714 262° West 366 421 31,800 -540 Descending Chicago Center
06:47PM 42.8069 -85.3083 261° West 367 422 30,900 -900 Descending Chicago Center
06:48PM 42.7900 -85.4719 262° West 364 419 30,000 -480 Descending Chicago Center
06:49PM 42.7675 -85.6056 257° West 362 417 30,000 -780 Level Chicago Center
06:50PM 42.7425 -85.7392 256° West 362 417 28,500 -1,860 Descending Chicago Center
06:51PM 42.7189 -85.8714 256° West 359 413 26,200 -2,280 Descending Chicago Center
06:52PM 42.6958 -85.9992 256° West 349 402 23,800 -2,340 Descending Chicago Center
06:53PM 42.6728 -86.1233 256° West 339 390 21,400 -1,860 Descending Chicago Center
06:54PM 42.6508 -86.2436 256° West 330 380 20,000 -720 Descending Chicago Center
06:55PM 42.6247 -86.3817 256° West 317 365 20,000 -120 Level Chicago Center
06:56PM 42.6031 -86.4975 256° West 317 365 19,800 -840 Descending Chicago Center
06:57PM 42.5806 -86.6125 256° West 316 364 18,300 -1,560 Descending Chicago Center
06:58PM 42.5645 -86.6370 256° West  Level FlightAware Approximate
06:58PM 42.5597 -86.7319 257° West 315 362 16,600  Level Chicago Center
06:59PM 42.5333 -86.8292 250° West 290 334 15,500 -1,560 Descending Chicago Center
07:01PM 42.5014 -86.9444 249° West 275 316 13,300 -2,040 Descending Chicago Center
07:02PM 42.4747 -87.0386 249° West 269 310 11,300 -2,040 Descending Chicago Center
07:03PM 42.4472 -87.1353 249° West 271 312 9,200 -1,500 Descending Chicago Center
07:04PM 42.4208 -87.2308 250° West 273 314 8,300 -960 Descending Chicago Center
07:05PM 42.3750 -87.3094 232° Southwest 270 311 7,300 -1,020 Descending Chicago Center
07:06PM 42.3111 -87.3872 222° Southwest 261 300 6,200 -780 Descending Chicago Center
07:07PM 42.2578 -87.4531 222° Southwest 260 299 5,700 -720 Descending Chicago Center
07:08PM 42.2053 -87.5225 224° Southwest 264 304 4,800 -840 Descending Chicago Center
07:09PM 42.1558 -87.5861 224° Southwest 252 290 4,000 -420 Descending Chicago Center
07:10PM 42.1139 -87.6425 225° Southwest 230 265 4,000 -240 Level Chicago Center
07:11PM 42.0603 -87.7106 223° Southwest 222 255 3,600 -420 Descending Chicago Center